DMKKS EDDN-EDMA

Flight info

Callsign DMKKS
Flight time 0h 26m
Altitude 6000
Route VFR
Aircraft VL3/L-SFG/C

Departure

Time 2026-04-28 15:37
Airport Nuremberg Airport (EDDN)

Arrival

Time 2026-04-28 16:04
Airport Augsburg Airport (EDMA)
Time Latitude Longitude Altitude Speed Heading
2026-04-28 15:30 49.49551 11.06938 1023 ft 0 kts 187°
2026-04-28 15:34 49.49528 11.06941 1023 ft 12 kts 130°
2026-04-28 15:34 49.49512 11.07090 1023 ft 12 kts 97°
2026-04-28 15:34 49.49516 11.07192 1023 ft 8 kts 12°
2026-04-28 15:35 49.49573 11.07205 1023 ft 11 kts
2026-04-28 15:35 49.49793 11.07066 1018 ft 20 kts 338°
2026-04-28 15:35 49.49857 11.07026 1016 ft 0 kts 336°
2026-04-28 15:36 49.49931 11.07026 1015 ft 23 kts 43°
2026-04-28 15:37 49.49922 11.07316 1021 ft 58 kts 96°
2026-04-28 15:37 49.49803 11.08087 1215 ft 80 kts 92°
2026-04-28 15:37 49.49713 11.08980 1592 ft 86 kts 93°
2026-04-28 15:37 49.49668 11.09605 1922 ft 91 kts 89°
2026-04-28 15:38 49.49354 11.10758 2555 ft 106 kts 144°
2026-04-28 15:38 49.48542 11.10795 2722 ft 136 kts 201°
2026-04-28 15:38 49.48095 11.09530 2712 ft 148 kts 265°
2026-04-28 15:38 49.48000 11.07967 2717 ft 147 kts 270°
2026-04-28 15:39 49.47927 11.06482 2952 ft 143 kts 268°
2026-04-28 15:39 49.47843 11.04913 2958 ft 153 kts 268°
2026-04-28 15:39 49.47789 11.03281 2890 ft 152 kts 266°
2026-04-28 15:39 49.47276 11.01876 2764 ft 149 kts 228°
2026-04-28 15:40 49.46615 11.00652 2796 ft 146 kts 226°
2026-04-28 15:40 49.45910 10.99486 2923 ft 158 kts 218°
2026-04-28 15:40 49.45000 10.98387 2960 ft 175 kts 211°
2026-04-28 15:40 49.43862 10.97968 3014 ft 171 kts 181°
2026-04-28 15:41 49.42649 10.97854 2892 ft 180 kts 173°
2026-04-28 15:41 49.41409 10.97983 2830 ft 179 kts 166°
2026-04-28 15:41 49.40201 10.98219 2837 ft 178 kts 169°
2026-04-28 15:41 49.39036 10.98310 2813 ft 177 kts 175°
2026-04-28 15:42 49.37847 10.98235 3035 ft 168 kts 176°
2026-04-28 15:42 49.36635 10.98158 2940 ft 180 kts 176°
2026-04-28 15:42 49.35416 10.98072 3052 ft 172 kts 177°
2026-04-28 15:42 49.34234 10.97987 3194 ft 169 kts 178°
2026-04-28 15:43 49.33060 10.97904 3334 ft 169 kts 179°
2026-04-28 15:43 49.31881 10.97804 3450 ft 169 kts 179°
2026-04-28 15:43 49.30714 10.97697 3581 ft 168 kts 179°
2026-04-28 15:43 49.29527 10.97603 3734 ft 173 kts 178°
2026-04-28 15:44 49.28321 10.97503 3858 ft 173 kts 178°
2026-04-28 15:44 49.27126 10.97370 3992 ft 172 kts 179°
2026-04-28 15:44 49.25928 10.97223 4110 ft 173 kts 181°
2026-04-28 15:44 49.24745 10.97068 4238 ft 173 kts 181°
2026-04-28 15:45 49.23531 10.96899 4375 ft 173 kts 180°
2026-04-28 15:45 49.22367 10.96731 4556 ft 168 kts 180°
2026-04-28 15:45 49.21195 10.96544 4732 ft 168 kts 182°
2026-04-28 15:45 49.20036 10.96337 4912 ft 168 kts 182°
2026-04-28 15:46 49.18866 10.96121 5084 ft 170 kts 182°
2026-04-28 15:46 49.17689 10.95901 5261 ft 170 kts 183°
2026-04-28 15:46 49.16508 10.95673 5437 ft 171 kts 183°
2026-04-28 15:46 49.15330 10.95443 5613 ft 171 kts 182°
2026-04-28 15:47 49.14144 10.95197 5796 ft 173 kts 183°
2026-04-28 15:47 49.12953 10.94939 5971 ft 173 kts 182°
2026-04-28 15:47 49.11738 10.94682 6001 ft 179 kts 183°
2026-04-28 15:47 49.10507 10.94425 6003 ft 182 kts 184°
2026-04-28 15:48 49.09252 10.94160 6013 ft 183 kts 183°
2026-04-28 15:48 49.07980 10.93885 6010 ft 185 kts 184°
2026-04-28 15:48 49.06701 10.93599 6006 ft 185 kts 184°
2026-04-28 15:48 49.05427 10.93292 6014 ft 184 kts 184°
2026-04-28 15:49 49.04159 10.92990 6019 ft 184 kts 184°
2026-04-28 15:49 49.02884 10.92696 6010 ft 186 kts 184°
2026-04-28 15:49 49.01609 10.92395 6013 ft 184 kts 185°
2026-04-28 15:49 49.00367 10.92091 6008 ft 183 kts 185°
2026-04-28 15:50 48.99094 10.91773 6000 ft 183 kts 186°
2026-04-28 15:50 48.97854 10.91456 6000 ft 183 kts 185°
2026-04-28 15:50 48.96597 10.91130 6002 ft 184 kts 185°
2026-04-28 15:50 48.95328 10.90797 6000 ft 186 kts 185°
2026-04-28 15:51 48.94052 10.90451 5993 ft 185 kts 186°
2026-04-28 15:51 48.92795 10.90096 5995 ft 182 kts 187°
2026-04-28 15:51 48.91541 10.89734 5992 ft 184 kts 187°
2026-04-28 15:51 48.90280 10.89363 5990 ft 183 kts 187°
2026-04-28 15:52 48.89042 10.88990 5985 ft 183 kts 187°
2026-04-28 15:52 48.87782 10.88603 5983 ft 182 kts 188°
2026-04-28 15:52 48.86557 10.88214 5982 ft 183 kts 187°
2026-04-28 15:52 48.85311 10.87818 5983 ft 183 kts 187°
2026-04-28 15:53 48.84069 10.87421 5979 ft 181 kts 188°
2026-04-28 15:53 48.82835 10.87021 5984 ft 182 kts 187°
2026-04-28 15:53 48.81589 10.86599 5975 ft 184 kts 188°
2026-04-28 15:53 48.80348 10.86165 5978 ft 184 kts 188°
2026-04-28 15:54 48.79095 10.85719 5977 ft 185 kts 188°
2026-04-28 15:54 48.77859 10.85271 5975 ft 185 kts 188°
2026-04-28 15:54 48.76612 10.84813 5976 ft 185 kts 188°
2026-04-28 15:54 48.75358 10.84347 5978 ft 185 kts 188°
2026-04-28 15:55 48.74104 10.83877 5867 ft 188 kts 189°
2026-04-28 15:55 48.73253 10.83556 5717 ft 192 kts 190°
2026-04-28 15:55 48.71956 10.83057 5494 ft 193 kts 189°
2026-04-28 15:55 48.70656 10.82548 5275 ft 193 kts 191°
2026-04-28 15:56 48.69358 10.82074 5058 ft 190 kts 184°
2026-04-28 15:56 48.68049 10.82099 4837 ft 189 kts 171°
2026-04-28 15:56 48.66740 10.82224 4610 ft 188 kts 172°
2026-04-28 15:56 48.65430 10.82342 4376 ft 189 kts 171°
2026-04-28 15:57 48.64124 10.82471 4150 ft 187 kts 172°
2026-04-28 15:57 48.62826 10.82620 3925 ft 187 kts 171°
2026-04-28 15:57 48.61531 10.82765 3704 ft 187 kts 171°
2026-04-28 15:57 48.60230 10.82912 3486 ft 185 kts 169°
2026-04-28 15:58 48.58979 10.83171 3473 ft 178 kts 166°
2026-04-28 15:58 48.57757 10.83428 3469 ft 177 kts 167°
2026-04-28 15:58 48.56554 10.83682 3469 ft 175 kts 166°
2026-04-28 15:58 48.55354 10.83926 3465 ft 172 kts 166°
2026-04-28 15:59 48.54190 10.84221 3490 ft 166 kts 152°
2026-04-28 15:59 48.53342 10.85333 3451 ft 160 kts 130°
2026-04-28 15:59 48.52528 10.86571 3197 ft 169 kts 130°
2026-04-28 15:59 48.52013 10.88048 3120 ft 158 kts 96°
2026-04-28 16:00 48.51343 10.89267 2994 ft 169 kts 145°
2026-04-28 16:00 48.50189 10.89792 2901 ft 176 kts 158°
2026-04-28 16:00 48.48990 10.90323 2660 ft 181 kts 157°
2026-04-28 16:00 48.47822 10.90864 2649 ft 175 kts 158°
2026-04-28 16:01 48.46652 10.91451 2464 ft 175 kts 155°
2026-04-28 16:01 48.45488 10.92066 2308 ft 181 kts 165°
2026-04-28 16:01 48.44425 10.91432 2532 ft 177 kts 234°
2026-04-28 16:01 48.43830 10.89880 2362 ft 149 kts 245°
2026-04-28 16:02 48.43392 10.88684 2152 ft 115 kts 211°
2026-04-28 16:02 48.42739 10.88662 1974 ft 75 kts 157°
2026-04-28 16:02 48.42320 10.88890 1823 ft 54 kts 127°
2026-04-28 16:02 48.42088 10.89438 1796 ft 70 kts 98°
2026-04-28 16:03 48.42033 10.90200 1782 ft 74 kts 91°
2026-04-28 16:03 48.42054 10.90990 1690 ft 78 kts 76°
2026-04-28 16:03 48.42198 10.91757 1620 ft 75 kts 68°
2026-04-28 16:03 48.42367 10.92484 1523 ft 61 kts 72°
2026-04-28 16:04 48.42405 10.92712 1512 ft 4 kts 82°